createdAt,value
2023-05-01T00:00:09.188Z,137.61
2023-05-01T00:01:09.220Z,140.17
2023-05-01T00:02:09.263Z,139.98
2023-05-01T00:03:09.379Z,141.29
2023-05-01T00:04:09.515Z,141.99
2023-05-01T00:05:09.510Z,143.16
2023-05-01T00:06:09.530Z,143.05
2023-05-01T00:07:09.520Z,137.21
2023-05-01T00:08:09.550Z,134.65
2023-05-01T00:09:09.592Z,131.73
2023-05-01T00:10:09.623Z,128.58
2023-05-01T00:11:09.682Z,127.48
2023-05-01T00:12:09.749Z,127.54
2023-05-01T00:13:09.760Z,125.75
2023-05-01T00:14:09.768Z,124.36
2023-05-01T00:15:09.825Z,125.94
2023-05-01T00:16:09.916Z,121.15
2023-05-01T00:17:09.876Z,117.57
2023-05-01T00:18:09.926Z,121.24
2023-05-01T00:19:09.929Z,126.31
2023-05-01T00:20:09.908Z,128.58
2023-05-01T00:21:09.934Z,130.73
2023-05-01T00:22:09.968Z,132.95
2023-05-01T00:23:09.971Z,128.03
2023-05-01T00:24:10.017Z,127.58
2023-05-01T00:25:09.967Z,127.29
2023-05-01T00:26:09.960Z,125.62
2023-05-01T00:27:09.982Z,123.20
2023-05-01T00:28:10.020Z,121.20
2023-05-01T00:29:10.052Z,117.10
2023-05-01T00:30:10.039Z,116.38
2023-05-01T00:31:10.036Z,116.94
2023-05-01T00:32:10.216Z,117.53
2023-05-01T00:33:10.170Z,119.61
2023-05-01T00:34:10.078Z,116.96
2023-05-01T00:35:10.112Z,117.55
2023-05-01T00:36:10.099Z,117.45
2023-05-01T00:37:10.107Z,120.35
2023-05-01T00:38:10.124Z,121.15
2023-05-01T00:39:10.127Z,123.07
2023-05-01T00:40:10.135Z,127.00
2023-05-01T00:41:10.121Z,127.13
2023-05-01T00:42:10.152Z,123.64
2023-05-01T00:43:10.138Z,121.53
2023-05-01T00:44:10.200Z,124.02
2023-05-01T00:45:10.211Z,127.96
2023-05-01T00:46:10.241Z,130.10
2023-05-01T00:47:10.239Z,132.76
2023-05-01T00:48:10.389Z,136.64
2023-05-01T00:49:10.280Z,141.70
2023-05-01T00:50:10.299Z,144.14
2023-05-01T00:51:10.322Z,141.30
2023-05-01T00:52:10.357Z,141.49
2023-05-01T00:53:10.372Z,142.39
2023-05-01T00:54:10.362Z,141.24
2023-05-01T00:55:10.380Z,138.81
2023-05-01T00:56:10.426Z,136.40
2023-05-01T00:57:10.489Z,137.12
2023-05-01T00:58:10.502Z,134.85
2023-05-01T00:59:10.526Z,132.52
2023-05-01T01:00:10.567Z,130.86
2023-05-01T01:01:10.608Z,132.91
2023-05-01T01:02:10.609Z,134.22
2023-05-01T01:03:10.702Z,138.75
2023-05-01T01:04:10.743Z,141.93
2023-05-01T01:05:10.694Z,142.19
2023-05-01T01:06:10.820Z,142.68
2023-05-01T01:07:10.751Z,144.66
2023-05-01T01:08:10.819Z,148.58
2023-05-01T01:09:10.846Z,148.22
2023-05-01T01:10:10.882Z,150.28
2023-05-01T01:11:10.907Z,152.57
2023-05-01T01:12:10.958Z,148.49
2023-05-01T01:13:10.985Z,140.55
2023-05-01T01:14:11.004Z,139.34
2023-05-01T01:15:11.071Z,141.82
2023-05-01T01:16:11.109Z,141.65
2023-05-01T01:17:11.157Z,141.52
2023-05-01T01:18:11.210Z,141.61
2023-05-01T01:19:11.171Z,139.62
2023-05-01T01:20:11.230Z,140.07
2023-05-01T01:21:11.237Z,142.51
2023-05-01T01:22:11.298Z,146.79
2023-05-01T01:23:11.320Z,147.96
2023-05-01T01:24:11.338Z,150.15
2023-05-01T01:25:11.397Z,156.53
2023-05-01T01:26:11.408Z,158.87
2023-05-01T01:27:11.432Z,162.27
2023-05-01T01:28:11.473Z,167.24
2023-05-01T01:29:11.536Z,169.51
2023-05-01T01:30:11.514Z,170.84
2023-05-01T01:31:11.590Z,171.80
2023-05-01T01:32:11.567Z,172.65
2023-05-01T01:33:11.627Z,174.98
2023-05-01T01:34:11.635Z,176.73
2023-05-01T01:35:11.674Z,177.71
2023-05-01T01:36:11.699Z,179.13
2023-05-01T01:37:11.757Z,176.88
2023-05-01T01:38:11.707Z,178.61
2023-05-01T01:39:11.745Z,180.40
2023-05-01T01:40:11.757Z,179.44
2023-05-01T01:41:11.758Z,181.52
2023-05-01T01:42:11.780Z,183.27
2023-05-01T01:43:11.822Z,188.74
2023-05-01T01:44:12.042Z,192.45
2023-05-01T01:45:11.894Z,194.20
2023-05-01T01:46:11.961Z,196.41
2023-05-01T01:47:11.932Z,199.64
2023-05-01T01:48:11.989Z,204.19
2023-05-01T01:49:11.966Z,207.64
2023-05-01T01:50:11.985Z,211.93
2023-05-01T01:51:12.026Z,213.61
2023-05-01T01:52:12.016Z,214.88
2023-05-01T01:53:12.105Z,215.26
2023-05-01T01:54:12.098Z,217.46
2023-05-01T01:55:12.149Z,218.84
2023-05-01T01:56:12.173Z,221.06
2023-05-01T01:57:12.165Z,224.58
2023-05-01T01:58:12.188Z,226.84
2023-05-01T01:59:12.188Z,225.90
2023-05-01T02:00:12.243Z,229.20
2023-05-01T02:01:12.305Z,231.56
2023-05-01T02:02:12.362Z,232.40
2023-05-01T02:03:12.433Z,235.90
2023-05-01T02:04:12.370Z,236.21
2023-05-01T02:05:12.387Z,237.45
2023-05-01T02:06:12.444Z,237.97
2023-05-01T02:07:12.467Z,239.00
2023-05-01T02:08:12.510Z,238.98
2023-05-01T02:09:12.546Z,241.90
2023-05-01T02:10:12.586Z,244.01
2023-05-01T02:11:12.609Z,245.27
2023-05-01T02:12:12.668Z,246.90
2023-05-01T02:13:12.667Z,245.77
2023-05-01T02:14:12.729Z,247.92
2023-05-01T02:15:12.753Z,246.69
2023-05-01T02:16:12.913Z,245.38
2023-05-01T02:17:12.853Z,244.47
2023-05-01T02:18:12.889Z,242.94
2023-05-01T02:19:12.930Z,243.10
2023-05-01T02:20:12.948Z,242.44
2023-05-01T02:21:12.961Z,241.50
2023-05-01T02:22:13.023Z,241.76
2023-05-01T02:23:13.072Z,239.32
2023-05-01T02:24:13.105Z,242.71
2023-05-01T02:25:13.153Z,245.36
2023-05-01T02:26:13.221Z,246.35
2023-05-01T02:27:13.219Z,248.87
2023-05-01T02:28:13.265Z,246.54
2023-05-01T02:29:13.310Z,246.54
2023-05-01T02:30:13.370Z,248.91
2023-05-01T02:31:13.415Z,248.54
2023-05-01T02:32:13.575Z,248.45
2023-05-01T02:33:13.502Z,249.80
2023-05-01T02:34:13.629Z,246.64
2023-05-01T02:35:13.596Z,248.43
2023-05-01T02:36:13.648Z,247.53
2023-05-01T02:37:13.699Z,247.63
2023-05-01T02:38:13.735Z,248.33
2023-05-01T02:39:13.804Z,247.78
2023-05-01T02:40:13.858Z,245.59
2023-05-01T02:41:13.908Z,245.08
2023-05-01T02:42:13.962Z,244.10
2023-05-01T02:43:13.976Z,241.27
2023-05-01T02:44:14.018Z,238.31
2023-05-01T02:45:14.053Z,234.41
2023-05-01T02:46:14.158Z,231.10
2023-05-01T02:47:14.202Z,230.00
2023-05-01T02:48:14.245Z,228.51
2023-05-01T02:49:14.241Z,228.79
2023-05-01T02:50:14.997Z,228.59
2023-05-01T02:51:14.358Z,229.19
2023-05-01T02:52:14.411Z,231.03
2023-05-01T02:53:14.431Z,228.66
2023-05-01T02:54:14.516Z,227.01
2023-05-01T02:55:14.535Z,227.82
2023-05-01T02:56:14.559Z,225.64
2023-05-01T02:57:14.608Z,228.09
2023-05-01T02:58:14.648Z,224.99
2023-05-01T02:59:14.695Z,225.53
2023-05-01T03:00:14.775Z,225.57
2023-05-01T03:01:14.887Z,228.34
2023-05-01T03:02:14.853Z,230.15
2023-05-01T03:03:15.035Z,233.79
2023-05-01T03:04:15.042Z,236.72
2023-05-01T03:05:14.981Z,240.24
2023-05-01T03:06:15.084Z,241.38
2023-05-01T03:07:15.099Z,245.96
2023-05-01T03:08:15.126Z,245.40
2023-05-01T03:09:15.146Z,248.33
2023-05-01T03:10:15.171Z,248.75
2023-05-01T03:11:15.209Z,249.12
2023-05-01T03:12:15.266Z,249.02
2023-05-01T03:13:15.314Z,247.80
2023-05-01T03:14:15.333Z,248.40
2023-05-01T03:15:15.381Z,248.14
2023-05-01T03:16:15.530Z,245.48
2023-05-01T03:17:15.518Z,247.39
2023-05-01T03:18:15.540Z,244.36
2023-05-01T03:19:15.592Z,245.49
2023-05-01T03:20:15.655Z,245.04
2023-05-01T03:21:15.702Z,244.93
2023-05-01T03:22:15.727Z,245.22
2023-05-01T03:23:15.801Z,243.42
2023-05-01T03:24:15.892Z,241.10
2023-05-01T03:25:15.927Z,241.09
2023-05-01T03:26:15.914Z,240.35
2023-05-01T03:27:15.974Z,243.01
2023-05-01T03:28:16.006Z,241.54
2023-05-01T03:29:16.061Z,246.29
2023-05-01T03:30:16.140Z,245.21
2023-05-01T03:31:16.171Z,242.03
2023-05-01T03:32:16.242Z,239.56
2023-05-01T03:33:16.308Z,242.15
2023-05-01T03:34:16.309Z,243.57
2023-05-01T03:35:16.421Z,244.87
2023-05-01T03:36:16.448Z,247.25
2023-05-01T03:37:16.471Z,243.99
2023-05-01T03:38:16.520Z,244.36
2023-05-01T03:39:16.550Z,242.29
2023-05-01T03:40:16.613Z,241.42
2023-05-01T03:41:16.629Z,243.76
2023-05-01T03:42:16.685Z,244.17
2023-05-01T03:43:16.734Z,244.89
2023-05-01T03:44:16.804Z,246.04
2023-05-01T03:45:16.865Z,244.20
2023-05-01T03:46:16.973Z,246.73
2023-05-01T03:47:16.962Z,246.03
2023-05-01T03:48:16.988Z,247.44
2023-05-01T03:49:17.076Z,247.13
2023-05-01T03:50:17.077Z,248.77
2023-05-01T03:51:17.147Z,249.49
2023-05-01T03:52:17.213Z,248.13
2023-05-01T03:53:17.274Z,248.53
2023-05-01T03:54:17.317Z,248.68
2023-05-01T03:55:17.328Z,248.36
2023-05-01T03:56:17.382Z,247.40
2023-05-01T03:57:17.488Z,248.81
2023-05-01T03:58:17.526Z,248.29
2023-05-01T03:59:17.563Z,250.00
2023-05-01T04:00:17.630Z,249.64
2023-05-01T04:01:17.684Z,249.85
2023-05-01T04:02:17.786Z,250.00
2023-05-01T04:03:17.903Z,250.00
2023-05-01T04:04:17.863Z,249.09
2023-05-01T04:05:17.900Z,248.25
2023-05-01T04:06:18.007Z,248.30
2023-05-01T04:07:18.036Z,247.43
2023-05-01T04:08:18.073Z,248.58
2023-05-01T04:09:18.150Z,249.58
2023-05-01T04:10:18.204Z,249.00
2023-05-01T04:11:18.224Z,250.00
2023-05-01T04:12:18.284Z,249.52
2023-05-01T04:13:18.324Z,248.92
2023-05-01T04:14:18.368Z,248.98
2023-05-01T04:15:18.422Z,248.32
2023-05-01T04:16:18.561Z,248.20
2023-05-01T04:17:18.574Z,247.47
2023-05-01T04:18:18.608Z,247.77
2023-05-01T04:19:18.635Z,247.59
2023-05-01T04:20:18.689Z,248.58
2023-05-01T04:21:18.768Z,247.20
2023-05-01T04:22:18.816Z,245.98
2023-05-01T04:23:18.864Z,243.17
2023-05-01T04:24:18.902Z,244.12
2023-05-01T04:25:18.967Z,243.01
2023-05-01T04:26:19.003Z,242.90
2023-05-01T04:27:19.082Z,244.85
2023-05-01T04:28:19.128Z,245.28
2023-05-01T04:29:19.180Z,245.44
2023-05-01T04:30:19.212Z,248.03
2023-05-01T04:31:19.306Z,247.50
2023-05-01T04:32:19.352Z,248.59
2023-05-01T04:33:19.371Z,249.15
2023-05-01T04:34:19.443Z,249.09
2023-05-01T04:35:19.494Z,250.00
2023-05-01T04:36:19.533Z,248.18
2023-05-01T04:37:19.617Z,249.81
2023-05-01T04:38:19.646Z,248.75
2023-05-01T04:39:19.717Z,249.03
2023-05-01T04:40:19.797Z,249.07
2023-05-01T04:41:19.843Z,249.17
2023-05-01T04:42:19.921Z,249.66
2023-05-01T04:43:19.927Z,247.84
2023-05-01T04:44:19.989Z,248.96
2023-05-01T04:45:20.040Z,248.47
2023-05-01T04:46:20.108Z,249.92
2023-05-01T04:47:20.128Z,247.18
2023-05-01T04:48:20.219Z,245.21
2023-05-01T04:49:20.249Z,245.93
2023-05-01T04:50:20.316Z,244.50
2023-05-01T04:51:20.468Z,242.02
2023-05-01T04:52:20.403Z,243.98
2023-05-01T04:53:20.467Z,244.21
2023-05-01T04:54:20.497Z,243.54
2023-05-01T04:55:20.558Z,246.44
2023-05-01T04:56:20.613Z,246.98
2023-05-01T04:57:20.639Z,248.82
2023-05-01T04:58:20.710Z,245.28
2023-05-01T04:59:20.782Z,249.27
2023-05-01T05:00:20.807Z,246.52
2023-05-01T05:01:20.873Z,248.08
2023-05-01T05:02:20.988Z,246.74
2023-05-01T05:03:21.028Z,246.06
2023-05-01T05:04:20.983Z,248.32
2023-05-01T05:05:21.047Z,248.29
2023-05-01T05:06:21.175Z,247.90
2023-05-01T05:07:21.185Z,245.90
2023-05-01T05:08:21.204Z,245.48
2023-05-01T05:09:21.264Z,245.28
2023-05-01T05:10:21.336Z,242.97
2023-05-01T05:11:21.385Z,243.09
2023-05-01T05:12:21.443Z,240.81
2023-05-01T05:13:21.489Z,240.64
2023-05-01T05:14:21.558Z,240.28
2023-05-01T05:15:21.580Z,241.53
2023-05-01T05:16:21.662Z,241.52
2023-05-01T05:17:21.661Z,243.77
2023-05-01T05:18:21.774Z,240.30
2023-05-01T05:19:21.795Z,237.68
2023-05-01T05:20:21.852Z,235.42
2023-05-01T05:21:21.900Z,237.21
2023-05-01T05:22:21.932Z,234.13
2023-05-01T05:23:21.966Z,230.56
2023-05-01T05:24:21.966Z,232.63
2023-05-01T05:25:21.984Z,230.41
2023-05-01T05:26:21.976Z,230.30
2023-05-01T05:27:22.015Z,231.38
2023-05-01T05:28:22.205Z,230.55
2023-05-01T05:29:22.028Z,230.78
2023-05-01T05:30:22.082Z,233.78
2023-05-01T05:31:22.093Z,234.58
2023-05-01T05:32:22.231Z,236.07
2023-05-01T05:33:22.143Z,235.77
2023-05-01T05:34:22.170Z,237.36
2023-05-01T05:35:22.244Z,237.65
2023-05-01T05:36:22.253Z,241.13
2023-05-01T05:37:22.344Z,241.64
2023-05-01T05:38:22.373Z,240.97
2023-05-01T05:39:22.436Z,242.20
2023-05-01T05:40:22.505Z,243.44
2023-05-01T05:41:22.537Z,242.76
2023-05-01T05:42:22.611Z,242.65
2023-05-01T05:43:22.638Z,243.94
2023-05-01T05:44:22.694Z,241.69
2023-05-01T05:45:22.751Z,241.30
2023-05-01T05:46:22.828Z,245.02
2023-05-01T05:47:22.867Z,245.57
2023-05-01T05:48:23.140Z,244.97
2023-05-01T05:49:22.953Z,245.77
2023-05-01T05:50:23.024Z,246.03
2023-05-01T05:51:23.082Z,246.02
2023-05-01T05:52:23.123Z,246.98
2023-05-01T05:53:25.733Z,246.69
2023-05-01T05:54:23.166Z,246.74
2023-05-01T05:55:23.149Z,245.40
2023-05-01T05:56:23.147Z,245.94
2023-05-01T05:57:23.168Z,241.48
2023-05-01T05:58:23.184Z,245.23
2023-05-01T05:59:23.154Z,241.27
2023-05-01T06:00:23.165Z,238.48
2023-05-01T06:01:23.128Z,236.44
2023-05-01T06:02:23.236Z,236.01
2023-05-01T06:04:23.094Z,234.77
2023-05-01T06:05:23.177Z,235.84
2023-05-01T06:06:23.110Z,233.22
2023-05-01T06:07:23.075Z,236.55
2023-05-01T06:08:23.101Z,234.84
2023-05-01T06:09:23.077Z,238.40
2023-05-01T06:10:23.044Z,236.85
2023-05-01T06:11:23.087Z,236.40
2023-05-01T06:12:23.087Z,234.18
2023-05-01T06:13:23.079Z,237.01
2023-05-01T06:14:23.033Z,234.90
2023-05-01T06:15:23.010Z,236.45
2023-05-01T06:16:23.033Z,235.83
2023-05-01T06:17:23.053Z,237.05
2023-05-01T06:18:23.038Z,239.99
2023-05-01T06:19:23.013Z,241.91
2023-05-01T06:20:22.997Z,247.85
2023-05-01T06:21:23.000Z,247.79
2023-05-01T06:22:23.004Z,247.51
2023-05-01T06:23:23.000Z,249.99
2023-05-01T06:24:22.985Z,247.71
2023-05-01T06:25:22.941Z,245.46
2023-05-01T06:26:22.981Z,244.46
2023-05-01T06:27:22.977Z,246.15
2023-05-01T06:28:22.931Z,247.71
2023-05-01T06:29:22.944Z,246.83
2023-05-01T06:30:22.921Z,249.87
2023-05-01T06:31:22.960Z,248.31
2023-05-01T06:32:22.964Z,248.34
2023-05-01T06:33:22.879Z,249.12
2023-05-01T06:34:22.897Z,250.00
2023-05-01T06:35:22.881Z,249.37
2023-05-01T06:36:22.901Z,246.94
2023-05-01T06:37:22.951Z,246.75
2023-05-01T06:38:23.979Z,246.14
2023-05-01T06:39:23.208Z,243.69
2023-05-01T06:40:23.227Z,244.59
2023-05-01T06:41:23.267Z,243.89
2023-05-01T06:42:23.320Z,245.21
2023-05-01T06:43:23.322Z,245.54
2023-05-01T06:44:23.355Z,245.67
2023-05-01T06:45:23.387Z,246.37
2023-05-01T06:46:23.409Z,247.88
2023-05-01T06:47:23.488Z,248.52
2023-05-01T06:48:23.589Z,248.05
2023-05-01T06:49:23.522Z,247.69
2023-05-01T06:50:23.567Z,246.72
2023-05-01T06:51:23.588Z,248.72
2023-05-01T06:52:23.628Z,247.62
2023-05-01T06:53:23.642Z,245.13
2023-05-01T06:54:23.678Z,245.95
2023-05-01T06:55:23.672Z,246.65
2023-05-01T06:56:23.690Z,249.02
2023-05-01T06:57:23.703Z,245.96
2023-05-01T06:58:24.580Z,241.29
2023-05-01T06:59:23.742Z,239.47
2023-05-01T07:00:23.795Z,237.99
2023-05-01T07:01:23.860Z,235.47
2023-05-01T07:02:23.906Z,236.09
2023-05-01T07:03:23.859Z,236.15
2023-05-01T07:04:23.865Z,238.19
2023-05-01T07:05:23.877Z,236.84
2023-05-01T07:06:23.985Z,236.53
2023-05-01T07:07:23.960Z,232.30
2023-05-01T07:08:23.995Z,229.97
2023-05-01T07:09:23.946Z,227.56
2023-05-01T07:10:23.983Z,226.90
2023-05-01T07:11:23.988Z,229.46
2023-05-01T07:12:24.009Z,229.01
2023-05-01T07:13:24.059Z,228.24
2023-05-01T07:14:24.038Z,226.35
2023-05-01T07:15:24.058Z,224.21
2023-05-01T07:16:24.181Z,221.56
2023-05-01T07:17:24.152Z,223.62
2023-05-01T07:18:24.075Z,224.04
2023-05-01T07:19:24.100Z,224.52
2023-05-01T07:20:24.127Z,224.31
2023-05-01T07:21:24.162Z,224.84
2023-05-01T07:22:24.146Z,224.65
2023-05-01T07:23:24.176Z,224.86
2023-05-01T07:24:24.175Z,226.12
2023-05-01T07:25:24.166Z,230.24
2023-05-01T07:26:24.175Z,226.56
2023-05-01T07:27:24.175Z,225.34
2023-05-01T07:28:24.205Z,224.39
2023-05-01T07:29:24.183Z,223.28
2023-05-01T07:30:24.232Z,220.02
2023-05-01T07:31:24.261Z,217.31
2023-05-01T07:32:24.284Z,212.43
2023-05-01T07:33:24.383Z,212.68
2023-05-01T07:34:24.327Z,213.20
2023-05-01T07:35:24.326Z,219.19
2023-05-01T07:36:24.371Z,215.00
2023-05-01T07:37:24.372Z,214.32
2023-05-01T07:38:24.396Z,212.62
2023-05-01T07:39:24.411Z,209.88
2023-05-01T07:40:24.427Z,210.48
2023-05-01T07:41:24.454Z,213.44
2023-05-01T07:42:24.521Z,210.50
2023-05-01T07:43:24.555Z,208.15
2023-05-01T07:44:24.558Z,210.34
2023-05-01T07:45:24.596Z,208.13
2023-05-01T07:46:24.675Z,210.67
2023-05-01T07:47:24.751Z,209.00
2023-05-01T07:48:24.690Z,204.01
2023-05-01T07:49:24.717Z,199.41
2023-05-01T07:50:24.861Z,198.37
2023-05-01T07:51:24.830Z,195.76
2023-05-01T07:52:24.914Z,193.58
2023-05-01T07:53:24.947Z,194.02
2023-05-01T07:54:24.982Z,195.70
2023-05-01T07:55:25.008Z,197.21
2023-05-01T07:56:25.083Z,201.02
2023-05-01T07:57:25.107Z,197.97
2023-05-01T07:58:25.187Z,198.30
2023-05-01T07:59:25.235Z,205.21
2023-05-01T08:00:25.263Z,205.60
2023-05-01T08:01:25.339Z,204.24
2023-05-01T08:02:25.491Z,206.02
2023-05-01T08:03:25.540Z,198.66
2023-05-01T08:04:25.520Z,199.92
2023-05-01T08:05:25.505Z,206.19
2023-05-01T08:06:25.593Z,201.33
2023-05-01T08:07:25.594Z,196.28
2023-05-01T08:08:25.624Z,192.98
2023-05-01T08:09:25.664Z,194.55
2023-05-01T08:10:25.711Z,191.46
2023-05-01T08:11:25.769Z,186.87
2023-05-01T08:12:25.823Z,182.73
2023-05-01T08:13:25.850Z,182.01
2023-05-01T08:14:25.882Z,177.96
2023-05-01T08:15:25.928Z,177.10
2023-05-01T08:16:26.023Z,175.08
2023-05-01T08:17:26.086Z,171.12
2023-05-01T08:18:26.070Z,167.83
2023-05-01T08:19:26.087Z,168.68
2023-05-01T08:20:26.152Z,171.43
2023-05-01T08:21:26.190Z,168.56
2023-05-01T08:22:26.244Z,168.05
2023-05-01T08:23:26.274Z,169.27
2023-05-01T08:24:26.321Z,160.60
2023-05-01T08:25:26.354Z,153.89
2023-05-01T08:26:26.380Z,150.24
2023-05-01T08:27:26.460Z,150.37
2023-05-01T08:28:26.467Z,148.39
2023-05-01T08:29:26.516Z,146.58
2023-05-01T08:30:26.573Z,146.43
2023-05-01T08:31:26.636Z,137.25
2023-05-01T08:32:26.674Z,139.94
2023-05-01T08:33:26.691Z,132.78
2023-05-01T08:34:26.725Z,136.68
2023-05-01T08:35:26.766Z,135.53
2023-05-01T08:36:26.782Z,134.28
2023-05-01T08:37:26.843Z,132.38
2023-05-01T08:38:26.891Z,129.89
2023-05-01T08:39:26.902Z,132.48
2023-05-01T08:40:26.949Z,134.49
2023-05-01T08:41:27.020Z,137.74
2023-05-01T08:42:27.044Z,144.41
2023-05-01T08:43:27.055Z,149.52
2023-05-01T08:44:27.085Z,144.59
2023-05-01T08:45:27.102Z,150.67
2023-05-01T08:46:27.190Z,147.44
2023-05-01T08:47:27.200Z,142.47
2023-05-01T08:48:27.187Z,136.08
2023-05-01T08:49:27.198Z,134.87
2023-05-01T08:50:27.238Z,128.45
2023-05-01T08:51:27.237Z,125.91
2023-05-01T08:52:27.291Z,132.97
2023-05-01T08:53:27.348Z,136.18
2023-05-01T08:54:27.352Z,130.32
2023-05-01T08:55:27.360Z,135.57
2023-05-01T08:56:27.364Z,137.51
2023-05-01T08:57:27.409Z,125.75
2023-05-01T08:58:27.422Z,123.61
2023-05-01T08:59:27.427Z,121.33
2023-05-01T09:00:27.484Z,114.45
2023-05-01T09:01:27.519Z,118.53
2023-05-01T09:02:27.519Z,127.17
2023-05-01T09:03:27.557Z,118.64
2023-05-01T09:04:27.555Z,117.34
2023-05-01T09:05:27.565Z,122.03
2023-05-01T09:06:27.599Z,114.60
2023-05-01T09:07:27.585Z,118.22
2023-05-01T09:08:27.628Z,122.50
2023-05-01T09:09:27.629Z,123.27
2023-05-01T09:10:27.659Z,126.35
2023-05-01T09:11:27.664Z,128.10
2023-05-01T09:12:27.774Z,132.18
2023-05-01T09:13:27.676Z,132.93
2023-05-01T09:14:27.717Z,135.92
2023-05-01T09:15:27.739Z,136.13
2023-05-01T09:16:27.760Z,143.14
2023-05-01T09:17:27.779Z,144.48
2023-05-01T09:18:27.768Z,145.46
2023-05-01T09:19:27.770Z,146.83
2023-05-01T09:20:27.786Z,149.35
2023-05-01T09:21:27.812Z,150.17
2023-05-01T09:22:27.859Z,148.27
2023-05-01T09:23:27.871Z,143.44
2023-05-01T09:24:27.869Z,141.90
2023-05-01T09:25:27.866Z,146.16
2023-05-01T09:26:27.875Z,136.44
2023-05-01T09:27:27.934Z,133.01
2023-05-01T09:28:27.900Z,132.95
2023-05-01T09:29:27.909Z,133.31
2023-05-01T09:30:27.912Z,146.98
2023-05-01T09:31:28.006Z,157.03
2023-05-01T09:32:28.022Z,160.58
2023-05-01T09:33:27.986Z,154.18
2023-05-01T09:34:27.965Z,143.53
2023-05-01T09:35:27.952Z,142.37
2023-05-01T09:36:27.997Z,136.33
2023-05-01T09:37:28.020Z,136.22
2023-05-01T09:38:28.007Z,131.44
2023-05-01T09:39:28.016Z,135.11
2023-05-01T09:40:28.015Z,137.31
2023-05-01T09:41:28.017Z,136.27
2023-05-01T09:42:28.034Z,134.25
2023-05-01T09:43:28.053Z,135.07
2023-05-01T09:44:28.040Z,125.12
2023-05-01T09:45:28.047Z,119.82
2023-05-01T09:46:28.129Z,126.64
2023-05-01T09:47:28.185Z,124.69
2023-05-01T09:48:28.076Z,116.45
2023-05-01T09:49:28.108Z,121.26
2023-05-01T09:50:28.139Z,100.73
2023-05-01T09:51:28.121Z,100.92
2023-05-01T09:52:28.160Z,95.34
2023-05-01T09:53:28.146Z,94.11
2023-05-01T09:54:28.152Z,100.97
2023-05-01T09:55:28.153Z,103.05
2023-05-01T09:56:28.174Z,115.59
2023-05-01T09:57:28.191Z,105.95
2023-05-01T09:58:28.182Z,102.81
2023-05-01T09:59:28.180Z,112.07
2023-05-01T10:00:28.199Z,121.99
2023-05-01T10:01:28.341Z,127.53
2023-05-01T10:02:28.325Z,138.14
2023-05-01T10:03:28.431Z,137.65
2023-05-01T10:04:28.367Z,126.56
2023-05-01T10:05:28.409Z,133.84
2023-05-01T10:06:28.457Z,137.17
2023-05-01T10:07:28.526Z,135.30
2023-05-01T10:08:28.557Z,140.69
2023-05-01T10:09:28.650Z,135.98
2023-05-01T10:10:28.665Z,146.97
2023-05-01T10:11:28.701Z,148.59
2023-05-01T10:12:28.738Z,138.96
2023-05-01T10:13:28.792Z,139.89
2023-05-01T10:14:28.890Z,146.09
2023-05-01T10:15:28.908Z,157.45
2023-05-01T10:16:28.942Z,157.53
2023-05-01T10:17:29.004Z,153.91
2023-05-01T10:18:29.048Z,158.55
2023-05-01T10:19:29.046Z,163.00
2023-05-01T10:20:29.089Z,151.42
2023-05-01T10:21:29.127Z,151.23
2023-05-01T10:22:29.181Z,144.81
2023-05-01T10:23:29.224Z,152.58
2023-05-01T10:24:29.264Z,159.28
2023-05-01T10:25:29.303Z,162.06
2023-05-01T10:26:29.335Z,164.16
2023-05-01T10:27:29.343Z,162.63
2023-05-01T10:28:29.397Z,162.61
2023-05-01T10:29:29.414Z,163.22
2023-05-01T10:30:29.468Z,165.65
2023-05-01T10:31:29.593Z,170.21
2023-05-01T10:32:29.539Z,169.78
2023-05-01T10:33:29.546Z,172.00
2023-05-01T10:34:29.563Z,171.31
2023-05-01T10:35:29.598Z,174.64
2023-05-01T10:36:29.568Z,175.52
2023-05-01T10:37:29.598Z,181.13
2023-05-01T10:38:29.652Z,186.73
2023-05-01T10:39:29.646Z,192.50
2023-05-01T10:40:29.638Z,194.42
2023-05-01T10:41:29.675Z,192.45
2023-05-01T10:42:29.723Z,197.89
2023-05-01T10:43:29.698Z,200.88
2023-05-01T10:44:29.684Z,213.17
2023-05-01T10:45:29.763Z,233.94
2023-05-01T10:46:29.851Z,231.35
2023-05-01T10:47:29.769Z,228.24
2023-05-01T10:48:29.775Z,234.97
2023-05-01T10:49:29.799Z,243.91
2023-05-01T10:50:29.794Z,247.87
2023-05-01T10:51:29.787Z,250.00
2023-05-01T10:52:29.789Z,250.37
2023-05-01T10:53:29.796Z,248.46
2023-05-01T10:54:29.823Z,246.92
2023-05-01T10:55:29.865Z,246.62
2023-05-01T10:56:29.905Z,241.32
2023-05-01T10:57:29.892Z,241.58
2023-05-01T10:58:29.903Z,244.83
2023-05-01T10:59:29.932Z,244.59
2023-05-01T11:00:29.914Z,248.24
2023-05-01T11:01:30.001Z,249.10
2023-05-01T11:02:29.978Z,244.84
2023-05-01T11:03:30.045Z,241.51
2023-05-01T11:04:30.035Z,245.37
2023-05-01T11:05:38.197Z,249.21
2023-05-01T11:06:31.186Z,243.18
2023-05-01T11:07:30.055Z,226.80
2023-05-01T11:08:30.063Z,222.00
2023-05-01T11:09:30.073Z,214.56
2023-05-01T11:10:30.039Z,206.64
2023-05-01T11:11:30.045Z,195.72
2023-05-01T11:12:30.045Z,184.47
2023-05-01T11:13:30.102Z,187.58
2023-05-01T11:14:30.033Z,179.79
2023-05-01T11:15:30.019Z,174.21
2023-05-01T11:16:30.009Z,165.06
2023-05-01T11:17:30.093Z,157.14
2023-05-01T11:18:30.136Z,155.27
2023-05-01T11:19:30.143Z,149.74
2023-05-01T11:20:30.200Z,159.18
2023-05-01T11:21:30.251Z,155.95
2023-05-01T11:22:30.320Z,156.35
2023-05-01T11:23:30.374Z,153.95
2023-05-01T11:24:30.435Z,156.35
2023-05-01T11:25:30.499Z,149.57
2023-05-01T11:26:32.386Z,144.47
2023-05-01T11:27:30.589Z,134.88
2023-05-01T11:28:30.668Z,131.31
2023-05-01T11:29:30.724Z,127.24
2023-05-01T11:30:30.735Z,138.15
2023-05-01T11:31:30.813Z,136.23
2023-05-01T11:32:30.908Z,139.03
2023-05-01T11:33:30.920Z,141.37
2023-05-01T11:34:30.957Z,134.89
2023-05-01T11:35:30.996Z,136.67
2023-05-01T11:36:31.038Z,129.77
2023-05-01T11:37:31.091Z,128.58
2023-05-01T11:38:31.118Z,135.67
2023-05-01T11:39:31.140Z,133.57
2023-05-01T11:40:31.190Z,133.69
2023-05-01T11:41:31.266Z,138.96
2023-05-01T11:42:31.360Z,120.24
2023-05-01T11:43:31.333Z,110.69
2023-05-01T11:44:31.388Z,117.61
2023-05-01T11:45:31.456Z,124.48
2023-05-01T11:46:31.585Z,127.20
2023-05-01T11:47:31.499Z,116.64
2023-05-01T11:48:31.519Z,114.72
2023-05-01T11:49:31.581Z,132.82
2023-05-01T11:50:31.591Z,121.09
2023-05-01T11:51:31.658Z,123.28
2023-05-01T11:52:31.687Z,129.35
2023-05-01T11:53:31.764Z,112.54
2023-05-01T11:54:31.754Z,105.34
2023-05-01T11:55:31.829Z,104.66
2023-05-01T11:56:31.879Z,96.39
2023-05-01T11:57:31.889Z,94.73
2023-05-01T11:58:31.940Z,101.02
2023-05-01T11:59:32.000Z,108.67
2023-05-01T12:00:31.983Z,108.76
2023-05-01T12:01:32.031Z,109.88
2023-05-01T12:02:32.233Z,112.50
2023-05-01T12:03:32.260Z,98.93
2023-05-01T12:04:32.610Z,99.12
2023-05-01T12:05:32.197Z,102.07
2023-05-01T12:06:32.302Z,97.57
2023-05-01T12:07:32.249Z,102.00
2023-05-01T12:08:32.270Z,102.03
2023-05-01T12:09:32.338Z,103.65
2023-05-01T12:10:34.726Z,110.31
2023-05-01T12:11:32.371Z,103.23
2023-05-01T12:12:32.354Z,94.93
2023-05-01T12:13:32.335Z,93.67
2023-05-01T12:14:32.337Z,100.11
2023-05-01T12:15:32.329Z,108.80
2023-05-01T12:16:32.370Z,112.49
2023-05-01T12:17:32.411Z,100.08
2023-05-01T12:18:32.286Z,91.80
2023-05-01T12:19:32.294Z,92.16
2023-05-01T12:20:32.277Z,103.94
2023-05-01T12:21:32.376Z,101.60
2023-05-01T12:22:32.278Z,94.09
2023-05-01T12:23:32.271Z,99.26
2023-05-01T12:24:32.296Z,97.47
2023-05-01T12:25:32.238Z,101.23
2023-05-01T12:26:32.238Z,98.85
2023-05-01T12:27:32.209Z,100.14
2023-05-01T12:28:32.224Z,101.99
2023-05-01T12:29:32.203Z,102.67
2023-05-01T12:30:32.229Z,90.68